VLG81AB LECO-LEBL
Flight info
| Callsign | VLG81AB |
|---|---|
| Flight time | 1h 34m |
| Altitude | 34000 |
| Route | ROXER M190 BLV M601 GRAUS |
| Aircraft | A320/M-SDE3FGHIRWY/LB1 |
Departure
| Time | 2026-05-09 09:20 |
|---|---|
| Airport | A Coruña Airport (LECO) |
Arrival
| Time | 2026-05-09 10:54 |
|---|---|
| Airport | Josep Tarradellas Barcelona-El Prat Airport (LEBL) |
| Time | Latitude | Longitude | Altitude | Speed | Heading |
|---|---|---|---|---|---|
| 2026-05-09 08:50 | 43.30248 | -8.38012 | 274 ft | 0 kts | 302° |
| 2026-05-09 09:12 | 43.30239 | -8.37992 | 279 ft | 4 kts | 301° |
| 2026-05-09 09:13 | 43.30226 | -8.37965 | 283 ft | 2 kts | 317° |
| 2026-05-09 09:13 | 43.30217 | -8.37957 | 277 ft | 2 kts | 31° |
| 2026-05-09 09:13 | 43.30207 | -8.37964 | 283 ft | 2 kts | 29° |
| 2026-05-09 09:15 | 43.30214 | -8.37959 | 276 ft | 4 kts | 31° |
| 2026-05-09 09:16 | 43.30249 | -8.37930 | 274 ft | 6 kts | 31° |
| 2026-05-09 09:16 | 43.30256 | -8.37830 | 273 ft | 6 kts | 119° |
| 2026-05-09 09:16 | 43.30231 | -8.37773 | 273 ft | 9 kts | 118° |
| 2026-05-09 09:17 | 43.30258 | -8.37683 | 272 ft | 14 kts | 33° |
| 2026-05-09 09:17 | 43.30357 | -8.37603 | 272 ft | 18 kts | 31° |
| 2026-05-09 09:17 | 43.30475 | -8.37505 | 273 ft | 21 kts | 31° |
| 2026-05-09 09:17 | 43.30603 | -8.37398 | 274 ft | 22 kts | 31° |
| 2026-05-09 09:18 | 43.30737 | -8.37290 | 274 ft | 23 kts | 31° |
| 2026-05-09 09:18 | 43.30847 | -8.37200 | 275 ft | 14 kts | 29° |
| 2026-05-09 09:18 | 43.30928 | -8.37187 | 275 ft | 10 kts | 0° |
| 2026-05-09 09:18 | 43.30974 | -8.37144 | 275 ft | 7 kts | 89° |
| 2026-05-09 09:19 | 43.30942 | -8.37124 | 276 ft | 5 kts | 203° |
| 2026-05-09 09:19 | 43.30888 | -8.37166 | 278 ft | 29 kts | 211° |
| 2026-05-09 09:19 | 43.30471 | -8.37509 | 273 ft | 106 kts | 211° |
| 2026-05-09 09:19 | 43.29674 | -8.38163 | 366 ft | 151 kts | 210° |
| 2026-05-09 09:20 | 43.28809 | -8.38890 | 1096 ft | 146 kts | 207° |
| 2026-05-09 09:20 | 43.27839 | -8.39152 | 1822 ft | 143 kts | 171° |
| 2026-05-09 09:20 | 43.26900 | -8.38684 | 2412 ft | 151 kts | 145° |
| 2026-05-09 09:20 | 43.26152 | -8.37551 | 2747 ft | 174 kts | 118° |
| 2026-05-09 09:21 | 43.25938 | -8.35808 | 3068 ft | 203 kts | 84° |
| 2026-05-09 09:21 | 43.26635 | -8.34060 | 3697 ft | 222 kts | 44° |
| 2026-05-09 09:21 | 43.27930 | -8.32846 | 4507 ft | 228 kts | 36° |
| 2026-05-09 09:21 | 43.29290 | -8.31678 | 5312 ft | 233 kts | 35° |
| 2026-05-09 09:22 | 43.30672 | -8.30500 | 6127 ft | 236 kts | 35° |
| 2026-05-09 09:22 | 43.32075 | -8.29302 | 6932 ft | 239 kts | 35° |
| 2026-05-09 09:22 | 43.33490 | -8.28034 | 7524 ft | 251 kts | 43° |
| 2026-05-09 09:22 | 43.34515 | -8.26031 | 7897 ft | 268 kts | 74° |
| 2026-05-09 09:23 | 43.35050 | -8.23515 | 8540 ft | 280 kts | 78° |
| 2026-05-09 09:23 | 43.35570 | -8.20909 | 9389 ft | 285 kts | 78° |
| 2026-05-09 09:23 | 43.36101 | -8.18248 | 10082 ft | 297 kts | 78° |
| 2026-05-09 09:23 | 43.36459 | -8.15365 | 10403 ft | 316 kts | 92° |
| 2026-05-09 09:24 | 43.36141 | -8.12354 | 10970 ft | 322 kts | 108° |
| 2026-05-09 09:24 | 43.35561 | -8.09362 | 11746 ft | 326 kts | 107° |
| 2026-05-09 09:24 | 43.34982 | -8.06329 | 12573 ft | 329 kts | 107° |
| 2026-05-09 09:24 | 43.34401 | -8.03266 | 13399 ft | 333 kts | 108° |
| 2026-05-09 09:25 | 43.33815 | -8.00182 | 14120 ft | 336 kts | 108° |
| 2026-05-09 09:25 | 43.33219 | -7.97060 | 14813 ft | 340 kts | 108° |
| 2026-05-09 09:25 | 43.32617 | -7.93905 | 15508 ft | 343 kts | 108° |
| 2026-05-09 09:25 | 43.32009 | -7.90721 | 16198 ft | 346 kts | 108° |
| 2026-05-09 09:26 | 43.31394 | -7.87513 | 16894 ft | 349 kts | 108° |
| 2026-05-09 09:26 | 43.30772 | -7.84272 | 17585 ft | 352 kts | 108° |
| 2026-05-09 09:26 | 43.30143 | -7.81013 | 18237 ft | 355 kts | 108° |
| 2026-05-09 09:26 | 43.29506 | -7.77716 | 18802 ft | 359 kts | 108° |
| 2026-05-09 09:27 | 43.28863 | -7.74388 | 19375 ft | 362 kts | 108° |
| 2026-05-09 09:27 | 43.28213 | -7.71031 | 19936 ft | 366 kts | 108° |
| 2026-05-09 09:27 | 43.27558 | -7.67651 | 20492 ft | 369 kts | 108° |
| 2026-05-09 09:27 | 43.26893 | -7.64232 | 21034 ft | 372 kts | 108° |
| 2026-05-09 09:28 | 43.26220 | -7.60783 | 21576 ft | 376 kts | 108° |
| 2026-05-09 09:28 | 43.25540 | -7.57302 | 22057 ft | 380 kts | 108° |
| 2026-05-09 09:28 | 43.24850 | -7.53794 | 22538 ft | 384 kts | 108° |
| 2026-05-09 09:28 | 43.24150 | -7.50245 | 23071 ft | 387 kts | 109° |
| 2026-05-09 09:29 | 43.23443 | -7.46665 | 23540 ft | 390 kts | 109° |
| 2026-05-09 09:29 | 43.22733 | -7.43057 | 23975 ft | 393 kts | 109° |
| 2026-05-09 09:29 | 43.22141 | -7.39377 | 24409 ft | 399 kts | 101° |
| 2026-05-09 09:29 | 43.22026 | -7.35559 | 24844 ft | 406 kts | 91° |
| 2026-05-09 09:30 | 43.22433 | -7.31695 | 25268 ft | 414 kts | 80° |
| 2026-05-09 09:30 | 43.23327 | -7.27910 | 25674 ft | 419 kts | 74° |
| 2026-05-09 09:30 | 43.24314 | -7.24131 | 26094 ft | 422 kts | 75° |
| 2026-05-09 09:30 | 43.25296 | -7.20338 | 26449 ft | 424 kts | 75° |
| 2026-05-09 09:31 | 43.26280 | -7.16499 | 26785 ft | 428 kts | 76° |
| 2026-05-09 09:31 | 43.27271 | -7.12626 | 27147 ft | 431 kts | 76° |
| 2026-05-09 09:31 | 43.28269 | -7.08727 | 27523 ft | 434 kts | 76° |
| 2026-05-09 09:32 | 43.30285 | -7.00864 | 28282 ft | 440 kts | 76° |
| 2026-05-09 09:32 | 43.31300 | -6.96889 | 28656 ft | 442 kts | 76° |
| 2026-05-09 09:32 | 43.32320 | -6.92890 | 29009 ft | 445 kts | 76° |
| 2026-05-09 09:32 | 43.33330 | -6.88921 | 29377 ft | 447 kts | 77° |
| 2026-05-09 09:33 | 43.34369 | -6.84829 | 29752 ft | 450 kts | 77° |
| 2026-05-09 09:33 | 43.35401 | -6.80751 | 29975 ft | 454 kts | 78° |
| 2026-05-09 09:33 | 43.36429 | -6.76688 | 30182 ft | 458 kts | 78° |
| 2026-05-09 09:33 | 43.37491 | -6.72493 | 30448 ft | 461 kts | 78° |
| 2026-05-09 09:34 | 43.38544 | -6.68324 | 30734 ft | 462 kts | 78° |
| 2026-05-09 09:34 | 43.39586 | -6.64198 | 30988 ft | 464 kts | 78° |
| 2026-05-09 09:34 | 43.40657 | -6.59998 | 31277 ft | 466 kts | 78° |
| 2026-05-09 09:36 | 43.48167 | -6.30665 | 33781 ft | 465 kts | 79° |
| 2026-05-09 09:36 | 43.49227 | -6.26492 | 33832 ft | 457 kts | 80° |
| 2026-05-09 09:37 | 43.51301 | -6.18319 | 33837 ft | 450 kts | 80° |
| 2026-05-09 09:37 | 43.53340 | -6.10181 | 33839 ft | 449 kts | 80° |
| 2026-05-09 09:38 | 43.55168 | -6.02018 | 33838 ft | 438 kts | 91° |
| 2026-05-09 09:38 | 43.55521 | -5.97915 | 33838 ft | 425 kts | 100° |
| 2026-05-09 09:38 | 43.55461 | -5.93902 | 33838 ft | 415 kts | 105° |
| 2026-05-09 09:39 | 43.55133 | -5.85954 | 33832 ft | 416 kts | 105° |
| 2026-05-09 09:39 | 43.54820 | -5.77988 | 33829 ft | 416 kts | 105° |
| 2026-05-09 09:40 | 43.54499 | -5.70036 | 33793 ft | 416 kts | 106° |
| 2026-05-09 09:40 | 43.54169 | -5.62080 | 33811 ft | 415 kts | 106° |
| 2026-05-09 09:41 | 43.53841 | -5.54140 | 33820 ft | 415 kts | 106° |
| 2026-05-09 09:41 | 43.53507 | -5.46197 | 33832 ft | 415 kts | 106° |
| 2026-05-09 09:42 | 43.53163 | -5.38263 | 33839 ft | 414 kts | 107° |
| 2026-05-09 09:42 | 43.52807 | -5.30349 | 33803 ft | 414 kts | 107° |
| 2026-05-09 09:43 | 43.52393 | -5.22501 | 33810 ft | 413 kts | 108° |
| 2026-05-09 09:43 | 43.52019 | -5.15890 | 33817 ft | 414 kts | 108° |
| 2026-05-09 09:44 | 43.51502 | -5.06694 | 33822 ft | 414 kts | 107° |
| 2026-05-09 09:44 | 43.51064 | -4.98786 | 33829 ft | 414 kts | 107° |
| 2026-05-09 09:45 | 43.50692 | -4.92151 | 33803 ft | 415 kts | 108° |
| 2026-05-09 09:45 | 43.50238 | -4.84204 | 33809 ft | 418 kts | 107° |
| 2026-05-09 09:46 | 43.49818 | -4.76253 | 33816 ft | 420 kts | 107° |
| 2026-05-09 09:46 | 43.49406 | -4.68176 | 33819 ft | 420 kts | 107° |
| 2026-05-09 09:47 | 43.48987 | -4.60194 | 33821 ft | 421 kts | 107° |
| 2026-05-09 09:47 | 43.48549 | -4.52168 | 33803 ft | 421 kts | 107° |
| 2026-05-09 09:48 | 43.48123 | -4.44105 | 33812 ft | 423 kts | 107° |
| 2026-05-09 09:48 | 43.47737 | -4.36014 | 33814 ft | 424 kts | 106° |
| 2026-05-09 09:49 | 43.47331 | -4.27909 | 33821 ft | 423 kts | 107° |
| 2026-05-09 09:49 | 43.46845 | -4.19843 | 33833 ft | 423 kts | 108° |
| 2026-05-09 09:50 | 43.46331 | -4.11776 | 33835 ft | 423 kts | 108° |
| 2026-05-09 09:50 | 43.45823 | -4.03716 | 33846 ft | 423 kts | 108° |
| 2026-05-09 09:51 | 43.45317 | -3.95643 | 33851 ft | 423 kts | 108° |
| 2026-05-09 09:51 | 43.44614 | -3.87685 | 33849 ft | 412 kts | 114° |
| 2026-05-09 09:52 | 43.43472 | -3.79947 | 33835 ft | 413 kts | 114° |
| 2026-05-09 09:52 | 43.42327 | -3.72208 | 33822 ft | 414 kts | 114° |
| 2026-05-09 09:53 | 43.41175 | -3.64435 | 33833 ft | 415 kts | 114° |
| 2026-05-09 09:53 | 43.40029 | -3.56650 | 33838 ft | 416 kts | 114° |
| 2026-05-09 09:54 | 43.38867 | -3.48858 | 33848 ft | 416 kts | 114° |
| 2026-05-09 09:54 | 43.37696 | -3.41075 | 33820 ft | 416 kts | 114° |
| 2026-05-09 09:55 | 43.36516 | -3.33281 | 33848 ft | 416 kts | 114° |
| 2026-05-09 09:55 | 43.35344 | -3.25467 | 33865 ft | 418 kts | 113° |
| 2026-05-09 09:56 | 43.34190 | -3.17650 | 33875 ft | 417 kts | 113° |
| 2026-05-09 09:56 | 43.33029 | -3.09839 | 33880 ft | 417 kts | 114° |
| 2026-05-09 09:57 | 43.31864 | -3.02041 | 33857 ft | 417 kts | 113° |
| 2026-05-09 09:57 | 43.30591 | -2.94312 | 33869 ft | 407 kts | 120° |
| 2026-05-09 09:57 | 43.29531 | -2.90789 | 33872 ft | 394 kts | 128° |
| 2026-05-09 09:58 | 43.28147 | -2.87596 | 33874 ft | 387 kts | 133° |
| 2026-05-09 09:58 | 43.25261 | -2.81362 | 33882 ft | 387 kts | 133° |
| 2026-05-09 09:59 | 43.22386 | -2.75123 | 33878 ft | 387 kts | 133° |
| 2026-05-09 09:59 | 43.19527 | -2.68927 | 33866 ft | 387 kts | 133° |
| 2026-05-09 10:00 | 43.16621 | -2.62663 | 33857 ft | 387 kts | 132° |
| 2026-05-09 10:00 | 43.13741 | -2.56475 | 33871 ft | 388 kts | 132° |
| 2026-05-09 10:01 | 43.10838 | -2.50244 | 33878 ft | 389 kts | 132° |
| 2026-05-09 10:01 | 43.07906 | -2.43962 | 33892 ft | 389 kts | 132° |
| 2026-05-09 10:02 | 43.05007 | -2.37763 | 33891 ft | 389 kts | 133° |
| 2026-05-09 10:02 | 43.02060 | -2.31490 | 33892 ft | 390 kts | 132° |
| 2026-05-09 10:03 | 42.99154 | -2.25297 | 33877 ft | 390 kts | 132° |
| 2026-05-09 10:03 | 42.96217 | -2.19029 | 33901 ft | 393 kts | 131° |
| 2026-05-09 10:04 | 42.93291 | -2.12715 | 33926 ft | 394 kts | 131° |
| 2026-05-09 10:04 | 42.90366 | -2.06411 | 33929 ft | 393 kts | 131° |
| 2026-05-09 10:05 | 42.87430 | -2.00124 | 33930 ft | 393 kts | 131° |
| 2026-05-09 10:05 | 42.84496 | -1.93862 | 33937 ft | 392 kts | 131° |
| 2026-05-09 10:06 | 42.81554 | -1.87592 | 33913 ft | 393 kts | 132° |
| 2026-05-09 10:06 | 42.78608 | -1.81319 | 33946 ft | 394 kts | 132° |
| 2026-05-09 10:07 | 42.75648 | -1.75022 | 33951 ft | 395 kts | 132° |
| 2026-05-09 10:07 | 42.72799 | -1.68589 | 33958 ft | 404 kts | 125° |
| 2026-05-09 10:08 | 42.70393 | -1.61691 | 33957 ft | 404 kts | 125° |
| 2026-05-09 10:08 | 42.67975 | -1.54788 | 33957 ft | 404 kts | 125° |
| 2026-05-09 10:09 | 42.65547 | -1.47904 | 33927 ft | 404 kts | 126° |
| 2026-05-09 10:09 | 42.63107 | -1.41008 | 33937 ft | 405 kts | 125° |
| 2026-05-09 10:10 | 42.60666 | -1.34118 | 33938 ft | 405 kts | 125° |
| 2026-05-09 10:10 | 42.58227 | -1.27242 | 33955 ft | 404 kts | 125° |
| 2026-05-09 10:11 | 42.55788 | -1.20381 | 33956 ft | 403 kts | 125° |
| 2026-05-09 10:11 | 42.53348 | -1.13541 | 33931 ft | 402 kts | 126° |
| 2026-05-09 10:12 | 42.50906 | -1.06712 | 33929 ft | 403 kts | 126° |
| 2026-05-09 10:12 | 42.48446 | -0.99866 | 33930 ft | 404 kts | 126° |
| 2026-05-09 10:13 | 42.45995 | -0.93024 | 33934 ft | 404 kts | 126° |
| 2026-05-09 10:13 | 42.43534 | -0.86180 | 33943 ft | 404 kts | 126° |
| 2026-05-09 10:14 | 42.41071 | -0.79354 | 33944 ft | 404 kts | 126° |
| 2026-05-09 10:14 | 42.38598 | -0.72528 | 33934 ft | 405 kts | 127° |
| 2026-05-09 10:15 | 42.36120 | -0.65692 | 33946 ft | 405 kts | 127° |
| 2026-05-09 10:15 | 42.33634 | -0.58858 | 33958 ft | 405 kts | 127° |
| 2026-05-09 10:16 | 42.31142 | -0.52030 | 33954 ft | 405 kts | 127° |
| 2026-05-09 10:16 | 42.28653 | -0.45196 | 33950 ft | 405 kts | 127° |
| 2026-05-09 10:17 | 42.26159 | -0.38375 | 33952 ft | 405 kts | 127° |
| 2026-05-09 10:17 | 42.23653 | -0.31555 | 33958 ft | 405 kts | 127° |
| 2026-05-09 10:18 | 42.21149 | -0.24752 | 33957 ft | 405 kts | 127° |
| 2026-05-09 10:18 | 42.18612 | -0.17895 | 33994 ft | 415 kts | 127° |
| 2026-05-09 10:19 | 42.16013 | -0.10889 | 33180 ft | 419 kts | 126° |
| 2026-05-09 10:19 | 42.14717 | -0.07379 | 32478 ft | 417 kts | 126° |
| 2026-05-09 10:19 | 42.13426 | -0.03881 | 31803 ft | 416 kts | 126° |
| 2026-05-09 10:19 | 42.12136 | -0.00396 | 31118 ft | 415 kts | 125° |
| 2026-05-09 10:20 | 42.10850 | 0.03071 | 30454 ft | 415 kts | 125° |
| 2026-05-09 10:20 | 42.09559 | 0.06543 | 29772 ft | 414 kts | 125° |
| 2026-05-09 10:20 | 42.08267 | 0.10008 | 29053 ft | 414 kts | 125° |
| 2026-05-09 10:20 | 42.06981 | 0.13457 | 28342 ft | 413 kts | 124° |
| 2026-05-09 10:21 | 42.05694 | 0.16905 | 27651 ft | 411 kts | 124° |
| 2026-05-09 10:21 | 42.04409 | 0.20338 | 26966 ft | 410 kts | 124° |
| 2026-05-09 10:21 | 42.03129 | 0.23756 | 26308 ft | 408 kts | 123° |
| 2026-05-09 10:21 | 42.01850 | 0.27167 | 25697 ft | 405 kts | 123° |
| 2026-05-09 10:22 | 42.00603 | 0.30489 | 25455 ft | 394 kts | 123° |
| 2026-05-09 10:22 | 41.99362 | 0.33705 | 25209 ft | 379 kts | 128° |
| 2026-05-09 10:22 | 41.97823 | 0.36457 | 24966 ft | 361 kts | 139° |
| 2026-05-09 10:22 | 41.95973 | 0.38629 | 24664 ft | 348 kts | 150° |
| 2026-05-09 10:23 | 41.93895 | 0.40237 | 24343 ft | 342 kts | 159° |
| 2026-05-09 10:23 | 41.91745 | 0.41607 | 24001 ft | 341 kts | 158° |
| 2026-05-09 10:23 | 41.89602 | 0.42973 | 23647 ft | 340 kts | 158° |
| 2026-05-09 10:23 | 41.87471 | 0.44334 | 23263 ft | 339 kts | 158° |
| 2026-05-09 10:24 | 41.85344 | 0.45697 | 22915 ft | 338 kts | 158° |
| 2026-05-09 10:24 | 41.83224 | 0.47054 | 22568 ft | 337 kts | 158° |
| 2026-05-09 10:24 | 41.81118 | 0.48399 | 22226 ft | 335 kts | 158° |
| 2026-05-09 10:24 | 41.79015 | 0.49741 | 21872 ft | 334 kts | 157° |
| 2026-05-09 10:25 | 41.76920 | 0.51078 | 21536 ft | 333 kts | 157° |
| 2026-05-09 10:25 | 41.74835 | 0.52406 | 21196 ft | 331 kts | 157° |
| 2026-05-09 10:25 | 41.72760 | 0.53728 | 20861 ft | 329 kts | 156° |
| 2026-05-09 10:25 | 41.70699 | 0.55039 | 20518 ft | 328 kts | 156° |
| 2026-05-09 10:26 | 41.68639 | 0.56346 | 20180 ft | 327 kts | 156° |
| 2026-05-09 10:26 | 41.66615 | 0.57631 | 19849 ft | 326 kts | 156° |
| 2026-05-09 10:26 | 41.64568 | 0.58929 | 19514 ft | 325 kts | 156° |
| 2026-05-09 10:26 | 41.62504 | 0.60237 | 19170 ft | 324 kts | 155° |
| 2026-05-09 10:27 | 41.60497 | 0.61511 | 18837 ft | 323 kts | 155° |
| 2026-05-09 10:27 | 41.58470 | 0.62799 | 18502 ft | 322 kts | 154° |
| 2026-05-09 10:27 | 41.57179 | 0.63835 | 18274 ft | 322 kts | 144° |
| 2026-05-09 10:27 | 41.55164 | 0.66716 | 17795 ft | 323 kts | 123° |
| 2026-05-09 10:28 | 41.54225 | 0.69438 | 17468 ft | 324 kts | 109° |
| 2026-05-09 10:28 | 41.53569 | 0.72320 | 17123 ft | 324 kts | 109° |
| 2026-05-09 10:28 | 41.52911 | 0.75188 | 16790 ft | 323 kts | 109° |
| 2026-05-09 10:28 | 41.52253 | 0.78049 | 16445 ft | 322 kts | 109° |
| 2026-05-09 10:29 | 41.51809 | 0.79975 | 16226 ft | 323 kts | 109° |
| 2026-05-09 10:29 | 41.51150 | 0.82833 | 15894 ft | 322 kts | 109° |
| 2026-05-09 10:29 | 41.50491 | 0.85680 | 15564 ft | 320 kts | 109° |
| 2026-05-09 10:29 | 41.49834 | 0.88514 | 15231 ft | 319 kts | 109° |
| 2026-05-09 10:30 | 41.49182 | 0.91328 | 14906 ft | 318 kts | 109° |
| 2026-05-09 10:30 | 41.48537 | 0.94106 | 14588 ft | 316 kts | 109° |
| 2026-05-09 10:30 | 41.47880 | 0.96936 | 14266 ft | 315 kts | 109° |
| 2026-05-09 10:30 | 41.47232 | 0.99724 | 13938 ft | 314 kts | 109° |
| 2026-05-09 10:31 | 41.46595 | 1.02461 | 13614 ft | 313 kts | 110° |
| 2026-05-09 10:31 | 41.45951 | 1.05221 | 13275 ft | 311 kts | 109° |
| 2026-05-09 10:31 | 41.45312 | 1.07959 | 12973 ft | 309 kts | 109° |
| 2026-05-09 10:31 | 41.44672 | 1.10692 | 12649 ft | 308 kts | 110° |
| 2026-05-09 10:32 | 41.44035 | 1.13410 | 12335 ft | 307 kts | 109° |
| 2026-05-09 10:32 | 41.43398 | 1.16115 | 12004 ft | 305 kts | 109° |
| 2026-05-09 10:32 | 41.42766 | 1.18806 | 11690 ft | 304 kts | 110° |
| 2026-05-09 10:32 | 41.42137 | 1.21491 | 11399 ft | 303 kts | 110° |
| 2026-05-09 10:33 | 41.41512 | 1.24158 | 11093 ft | 300 kts | 110° |
| 2026-05-09 10:33 | 41.40888 | 1.26809 | 10785 ft | 299 kts | 109° |
| 2026-05-09 10:33 | 41.40269 | 1.29437 | 10522 ft | 295 kts | 109° |
| 2026-05-09 10:33 | 41.39658 | 1.32026 | 10232 ft | 291 kts | 109° |
| 2026-05-09 10:34 | 41.39050 | 1.34601 | 9916 ft | 289 kts | 110° |
| 2026-05-09 10:34 | 41.37882 | 1.39558 | 9523 ft | 273 kts | 109° |
| 2026-05-09 10:34 | 41.37316 | 1.41953 | 9463 ft | 272 kts | 109° |
| 2026-05-09 10:35 | 41.36748 | 1.44348 | 9368 ft | 271 kts | 109° |
| 2026-05-09 10:35 | 41.36182 | 1.46734 | 9244 ft | 269 kts | 110° |
| 2026-05-09 10:35 | 41.35619 | 1.49095 | 9113 ft | 268 kts | 109° |
| 2026-05-09 10:35 | 41.35058 | 1.51459 | 8989 ft | 268 kts | 109° |
| 2026-05-09 10:36 | 41.34500 | 1.53831 | 8855 ft | 268 kts | 107° |
| 2026-05-09 10:36 | 41.34243 | 1.56280 | 8735 ft | 269 kts | 93° |
| 2026-05-09 10:36 | 41.34215 | 1.58750 | 8602 ft | 267 kts | 93° |
| 2026-05-09 10:36 | 41.34181 | 1.61219 | 8476 ft | 266 kts | 92° |
| 2026-05-09 10:37 | 41.34145 | 1.63687 | 8345 ft | 266 kts | 93° |
| 2026-05-09 10:37 | 41.34110 | 1.66105 | 8218 ft | 264 kts | 93° |
| 2026-05-09 10:37 | 41.34069 | 1.68509 | 8089 ft | 254 kts | 96° |
| 2026-05-09 10:37 | 41.33641 | 1.70732 | 7916 ft | 242 kts | 118° |
| 2026-05-09 10:38 | 41.32659 | 1.72441 | 7828 ft | 235 kts | 139° |
| 2026-05-09 10:38 | 41.31262 | 1.73577 | 7706 ft | 236 kts | 155° |
| 2026-05-09 10:38 | 41.29775 | 1.74466 | 7551 ft | 235 kts | 154° |
| 2026-05-09 10:38 | 41.28257 | 1.75227 | 7400 ft | 234 kts | 170° |
| 2026-05-09 10:39 | 41.26640 | 1.74953 | 7247 ft | 242 kts | 202° |
| 2026-05-09 10:39 | 41.25389 | 1.73468 | 7097 ft | 249 kts | 237° |
| 2026-05-09 10:39 | 41.24627 | 1.71378 | 6942 ft | 253 kts | 242° |
| 2026-05-09 10:39 | 41.23900 | 1.69245 | 6777 ft | 253 kts | 242° |
| 2026-05-09 10:40 | 41.23179 | 1.67114 | 6634 ft | 254 kts | 242° |
| 2026-05-09 10:40 | 41.22453 | 1.64970 | 6485 ft | 253 kts | 243° |
| 2026-05-09 10:40 | 41.21729 | 1.62842 | 6343 ft | 252 kts | 242° |
| 2026-05-09 10:40 | 41.21001 | 1.60718 | 6193 ft | 251 kts | 243° |
| 2026-05-09 10:41 | 41.20275 | 1.58608 | 6052 ft | 252 kts | 243° |
| 2026-05-09 10:41 | 41.19544 | 1.56489 | 5910 ft | 252 kts | 243° |
| 2026-05-09 10:41 | 41.18817 | 1.54379 | 5760 ft | 253 kts | 242° |
| 2026-05-09 10:41 | 41.18073 | 1.52234 | 5641 ft | 260 kts | 242° |
| 2026-05-09 10:42 | 41.17313 | 1.50103 | 5505 ft | 251 kts | 242° |
| 2026-05-09 10:42 | 41.16565 | 1.48036 | 5381 ft | 247 kts | 242° |
| 2026-05-09 10:42 | 41.15820 | 1.45987 | 5255 ft | 246 kts | 242° |
| 2026-05-09 10:42 | 41.15071 | 1.43950 | 5131 ft | 246 kts | 242° |
| 2026-05-09 10:43 | 41.14121 | 1.42107 | 5010 ft | 241 kts | 217° |
| 2026-05-09 10:43 | 41.12659 | 1.41170 | 4891 ft | 232 kts | 183° |
| 2026-05-09 10:43 | 41.11113 | 1.41418 | 4772 ft | 222 kts | 152° |
| 2026-05-09 10:43 | 41.09895 | 1.42617 | 4642 ft | 219 kts | 125° |
| 2026-05-09 10:44 | 41.09246 | 1.44446 | 4518 ft | 225 kts | 99° |
| 2026-05-09 10:44 | 41.09345 | 1.46537 | 4387 ft | 235 kts | 73° |
| 2026-05-09 10:44 | 41.09876 | 1.48607 | 4261 ft | 239 kts | 71° |
| 2026-05-09 10:44 | 41.10421 | 1.50687 | 4137 ft | 238 kts | 71° |
| 2026-05-09 10:45 | 41.10963 | 1.52756 | 4033 ft | 238 kts | 72° |
| 2026-05-09 10:46 | 41.13294 | 1.60277 | 3946 ft | 200 kts | 67° |
| 2026-05-09 10:46 | 41.13874 | 1.61949 | 3946 ft | 199 kts | 67° |
| 2026-05-09 10:46 | 41.14451 | 1.63617 | 3944 ft | 199 kts | 68° |
| 2026-05-09 10:46 | 41.15029 | 1.65286 | 3943 ft | 198 kts | 67° |
| 2026-05-09 10:47 | 41.15604 | 1.66948 | 3944 ft | 199 kts | 67° |
| 2026-05-09 10:47 | 41.16186 | 1.68627 | 3944 ft | 199 kts | 67° |
| 2026-05-09 10:47 | 41.16762 | 1.70289 | 3951 ft | 199 kts | 67° |
| 2026-05-09 10:47 | 41.17340 | 1.71956 | 3952 ft | 199 kts | 67° |
| 2026-05-09 10:48 | 41.17920 | 1.73629 | 3952 ft | 200 kts | 67° |
| 2026-05-09 10:48 | 41.18499 | 1.75305 | 3951 ft | 200 kts | 67° |
| 2026-05-09 10:48 | 41.19081 | 1.76987 | 3951 ft | 200 kts | 67° |
| 2026-05-09 10:48 | 41.19661 | 1.78661 | 3952 ft | 199 kts | 67° |
| 2026-05-09 10:49 | 41.20226 | 1.80294 | 3945 ft | 188 kts | 67° |
| 2026-05-09 10:49 | 41.20759 | 1.81829 | 3945 ft | 181 kts | 67° |
| 2026-05-09 10:49 | 41.21280 | 1.83337 | 3951 ft | 179 kts | 67° |
| 2026-05-09 10:49 | 41.21801 | 1.84864 | 3705 ft | 185 kts | 67° |
| 2026-05-09 10:50 | 41.22342 | 1.86441 | 3399 ft | 189 kts | 66° |
| 2026-05-09 10:50 | 41.22891 | 1.88036 | 3171 ft | 190 kts | 66° |
| 2026-05-09 10:50 | 41.23443 | 1.89634 | 2914 ft | 191 kts | 67° |
| 2026-05-09 10:50 | 41.23994 | 1.91230 | 2654 ft | 191 kts | 67° |
| 2026-05-09 10:51 | 41.24542 | 1.92820 | 2405 ft | 185 kts | 66° |
| 2026-05-09 10:51 | 41.25055 | 1.94307 | 2190 ft | 168 kts | 66° |
| 2026-05-09 10:51 | 41.25512 | 1.95632 | 1975 ft | 151 kts | 67° |
| 2026-05-09 10:51 | 41.25925 | 1.96830 | 1781 ft | 134 kts | 67° |
| 2026-05-09 10:52 | 41.26303 | 1.97931 | 1597 ft | 128 kts | 67° |
| 2026-05-09 10:52 | 41.26665 | 1.98983 | 1429 ft | 126 kts | 67° |
| 2026-05-09 10:52 | 41.27029 | 2.00041 | 1261 ft | 125 kts | 67° |
| 2026-05-09 10:52 | 41.27397 | 2.01113 | 1089 ft | 127 kts | 66° |
| 2026-05-09 10:53 | 41.27761 | 2.02155 | 902 ft | 124 kts | 67° |
| 2026-05-09 10:53 | 41.28126 | 2.03205 | 719 ft | 126 kts | 67° |
| 2026-05-09 10:53 | 41.28491 | 2.04255 | 505 ft | 125 kts | 65° |
| 2026-05-09 10:53 | 41.28843 | 2.05314 | 354 ft | 126 kts | 67° |
| 2026-05-09 10:54 | 41.29204 | 2.06368 | 202 ft | 126 kts | 66° |
| 2026-05-09 10:54 | 41.29565 | 2.07428 | 44 ft | 124 kts | 67° |
| 2026-05-09 10:54 | 41.29894 | 2.08392 | 26 ft | 96 kts | 66° |
| 2026-05-09 10:54 | 41.30097 | 2.08985 | 18 ft | 34 kts | 65° |
| 2026-05-09 10:55 | 41.30137 | 2.09200 | 16 ft | 17 kts | 91° |
| 2026-05-09 10:55 | 41.30130 | 2.09350 | 15 ft | 15 kts | 94° |
| 2026-05-09 10:55 | 41.30090 | 2.09434 | 16 ft | 12 kts | 151° |
| 2026-05-09 10:55 | 41.30012 | 2.09477 | 17 ft | 11 kts | 158° |
| 2026-05-09 10:56 | 41.29956 | 2.09432 | 16 ft | 10 kts | 244° |